Time;durP1;ratioP1;P1;durP2;ratioP2;P2;SDS_P1;SDS_P2;PMS_P1;PMS_P2;Temp;Humidity;BMP_temperature;BMP_pressure;BME280_temperature;BME280_humidity;BME280_pressure;Samples;Min_cycle;Max_cycle;Signal;HPM_P1;HPM_P2
2021/03/26 00:01:15;;;;;;;21.57;12.77;;;8.10;99.90;;;;;;5047114;28;20190;-79
2021/03/26 00:03:42;;;;;;;20.87;12.73;;;8.20;99.90;;;;;;5047106;28;20186;-79
2021/03/26 00:06:11;;;;;;;22.97;13.20;;;8.10;99.90;;;;;;5046399;28;20218;-79
2021/03/26 00:08:37;;;;;;;19.17;10.87;;;8.10;99.90;;;;;;5046304;28;20871;-80
2021/03/26 00:11:03;;;;;;;21.73;12.57;;;8.20;99.90;;;;;;5046157;28;20189;-79
2021/03/26 00:13:29;;;;;;;22.00;12.13;;;8.20;99.90;;;;;;5046461;28;20189;-79
2021/03/26 00:15:55;;;;;;;21.17;11.70;;;8.20;99.90;;;;;;5046891;28;20202;-79
2021/03/26 00:18:21;;;;;;;20.70;11.67;;;8.20;99.90;;;;;;5047788;28;20182;-79
2021/03/26 00:20:46;;;;;;;21.27;11.83;;;8.10;99.90;;;;;;5048805;28;20715;-79
2021/03/26 00:23:12;;;;;;;20.97;11.93;;;8.20;99.90;;;;;;5046441;28;20786;-80
2021/03/26 00:25:38;;;;;;;17.90;11.17;;;8.20;99.90;;;;;;5046055;28;20252;-79
2021/03/26 00:28:05;;;;;;;22.90;13.80;;;8.20;99.90;;;;;;5046139;28;20216;-81
2021/03/26 00:30:31;;;;;;;22.03;13.43;;;8.20;99.90;;;;;;5047026;28;20178;-79
2021/03/26 00:32:57;;;;;;;18.77;11.80;;;8.20;99.90;;;;;;5046175;28;20179;-79
2021/03/26 00:35:26;;;;;;;22.70;12.27;;;8.20;99.90;;;;;;5043514;28;20184;-79
2021/03/26 00:37:52;;;;;;;18.27;10.30;;;8.20;99.90;;;;;;5045589;28;20218;-79
2021/03/26 00:40:19;;;;;;;18.67;11.93;;;8.20;99.90;;;;;;5046058;28;20269;-80
2021/03/26 00:42:45;;;;;;;21.80;13.40;;;8.20;99.90;;;;;;5045576;28;20194;-79
2021/03/26 00:45:16;;;;;;;18.00;11.53;;;8.20;99.90;;;;;;5046547;28;20190;-79
2021/03/26 00:47:42;;;;;;;20.47;12.80;;;8.20;99.90;;;;;;5046039;28;20305;-79
2021/03/26 00:50:21;;;;;;;20.93;12.27;;;8.20;99.90;;;;;;5048097;28;20178;-79
2021/03/26 00:52:47;;;;;;;20.17;12.67;;;8.20;99.90;;;;;;5047242;28;20190;-80
2021/03/26 00:55:14;;;;;;;20.87;12.53;;;8.20;99.90;;;;;;5047926;28;20239;-80
2021/03/26 00:57:40;;;;;;;22.20;12.87;;;8.20;99.90;;;;;;5045901;28;20186;-79
2021/03/26 01:00:09;;;;;;;21.70;12.67;;;8.20;99.90;;;;;;5048041;28;20193;-79
2021/03/26 01:02:34;;;;;;;18.10;10.83;;;8.20;99.90;;;;;;5045930;28;20178;-80
2021/03/26 01:05:00;;;;;;;20.23;12.17;;;8.20;99.90;;;;;;5046054;28;20469;-79
2021/03/26 01:07:26;;;;;;;20.20;11.77;;;8.20;99.90;;;;;;5049399;28;20214;-79
2021/03/26 01:09:51;;;;;;;21.97;13.40;;;8.20;99.90;;;;;;5046838;28;20179;-79
2021/03/26 01:12:17;;;;;;;22.40;12.73;;;8.10;99.90;;;;;;5044563;28;20274;-79
2021/03/26 01:14:43;;;;;;;21.77;13.07;;;8.20;99.90;;;;;;5046562;28;20860;-80
2021/03/26 01:17:08;;;;;;;19.50;12.23;;;8.20;99.90;;;;;;5042512;28;20210;-79
2021/03/26 01:19:38;;;;;;;22.23;13.03;;;8.20;99.90;;;;;;5044815;28;20182;-80
2021/03/26 01:22:06;;;;;;;19.17;12.00;;;8.20;99.90;;;;;;5045823;28;20560;-79
2021/03/26 01:24:31;;;;;;;23.60;12.60;;;8.20;99.90;;;;;;5045800;28;20660;-80
2021/03/26 01:26:58;;;;;;;19.87;12.20;;;8.20;99.90;;;;;;5062209;28;20212;-80
2021/03/26 01:29:23;;;;;;;18.50;12.20;;;8.20;99.90;;;;;;5045684;28;20553;-79
2021/03/26 01:31:49;;;;;;;21.03;12.00;;;8.20;99.90;;;;;;5047091;28;20178;-79
2021/03/26 01:34:14;;;;;;;23.63;12.50;;;8.20;99.90;;;;;;5045182;28;20217;-80
2021/03/26 01:36:40;;;;;;;16.90;10.77;;;8.20;99.90;;;;;;5045121;28;21093;-80
2021/03/26 01:39:06;;;;;;;22.80;12.20;;;8.20;99.90;;;;;;5045351;28;20568;-80
2021/03/26 01:41:38;;;;;;;21.23;11.90;;;8.20;99.90;;;;;;5044449;28;20194;-79
2021/03/26 01:44:05;;;;;;;22.87;13.10;;;8.20;99.90;;;;;;5044815;28;20231;-79
2021/03/26 01:46:30;;;;;;;23.43;13.57;;;8.20;99.90;;;;;;5046115;28;20623;-79
2021/03/26 01:48:58;;;;;;;33.17;16.00;;;8.20;99.90;;;;;;5039484;28;20327;-80
2021/03/26 01:51:38;;;;;;;24.83;14.40;;;8.20;99.90;;;;;;5044671;28;20175;-80
2021/03/26 01:54:07;;;;;;;25.60;13.87;;;8.20;99.90;;;;;;5044807;28;20185;-80
2021/03/26 01:56:33;;;;;;;21.63;13.33;;;8.20;99.90;;;;;;5045114;28;20251;-79
2021/03/26 01:58:59;;;;;;;21.60;12.70;;;8.20;99.90;;;;;;5044540;28;20191;-79
2021/03/26 02:01:29;;;;;;;25.63;13.90;;;8.20;99.90;;;;;;5045893;28;20232;-80
2021/03/26 02:03:59;;;;;;;22.87;13.20;;;8.20;99.90;;;;;;5044123;28;20190;-81
2021/03/26 02:06:33;;;;;;;21.47;13.33;;;8.20;99.90;;;;;;5045852;28;20210;-80
2021/03/26 02:09:12;;;;;;;23.40;14.13;;;8.20;99.90;;;;;;5044972;28;20206;-80
2021/03/26 02:12:11;;;;;;;23.07;13.47;;;8.20;99.90;;;;;;5045438;28;20178;-79
2021/03/26 02:14:44;;;;;;;20.27;11.93;;;8.20;99.90;;;;;;5045844;28;20697;-79
2021/03/26 02:17:15;;;;;;;23.87;14.60;;;8.30;99.90;;;;;;5045428;28;20202;-80
2021/03/26 02:19:59;;;;;;;22.33;12.87;;;8.20;99.90;;;;;;5043683;28;20316;-80
2021/03/26 02:22:29;;;;;;;21.23;12.37;;;8.20;99.90;;;;;;5045521;28;20174;-80
2021/03/26 02:24:56;;;;;;;24.43;13.33;;;8.20;99.90;;;;;;5044076;28;20217;-79
2021/03/26 02:27:27;;;;;;;22.13;13.37;;;8.20;99.90;;;;;;5043368;28;20218;-79
2021/03/26 02:29:54;;;;;;;20.60;12.83;;;8.20;99.90;;;;;;5044488;28;20204;-81
2021/03/26 02:32:19;;;;;;;24.63;13.70;;;8.20;99.90;;;;;;5045694;28;20201;-81
2021/03/26 02:35:04;;;;;;;19.57;13.00;;;8.20;99.90;;;;;;5044343;28;20174;-80
2021/03/26 02:37:29;;;;;;;22.93;13.43;;;8.20;99.90;;;;;;5043791;28;20249;-80
2021/03/26 02:39:55;;;;;;;23.97;13.77;;;8.10;99.90;;;;;;5043156;28;20248;-80
2021/03/26 02:42:54;;;;;;;20.13;12.97;;;8.10;99.90;;;;;;5041836;28;20197;-80
2021/03/26 02:45:30;;;;;;;20.23;12.17;;;8.10;99.90;;;;;;5039397;28;20186;-79
2021/03/26 02:47:59;;;;;;;20.53;11.77;;;8.10;99.90;;;;;;5044287;28;20209;-81
2021/03/26 02:50:58;;;;;;;18.33;10.90;;;8.00;99.90;;;;;;5043905;28;21194;-80
2021/03/26 02:53:36;;;;;;;19.03;10.17;;;8.00;99.90;;;;;;5043965;28;20182;-79
2021/03/26 02:56:07;;;;;;;16.03;10.37;;;7.90;99.90;;;;;;5044654;28;20206;-79
2021/03/26 02:58:37;;;;;;;19.20;12.13;;;7.90;99.90;;;;;;5043731;28;20616;-79
2021/03/26 03:01:27;;;;;;;19.23;11.50;;;7.80;99.90;;;;;;5044173;28;20273;-79
2021/03/26 03:04:00;;;;;;;17.43;11.03;;;7.80;99.90;;;;;;5046500;28;20266;-82
2021/03/26 03:06:41;;;;;;;24.77;12.50;;;7.80;99.90;;;;;;5045208;28;20233;-80
2021/03/26 03:09:09;;;;;;;20.40;12.33;;;7.70;99.90;;;;;;5048618;28;20188;-79
2021/03/26 03:11:40;;;;;;;17.83;11.33;;;7.70;99.90;;;;;;5046707;28;20178;-80
2021/03/26 03:14:17;;;;;;;21.13;12.13;;;7.60;99.90;;;;;;5050050;28;20525;-81
2021/03/26 03:17:07;;;;;;;18.83;10.97;;;7.60;99.90;;;;;;5047932;28;20259;-80
2021/03/26 03:19:40;;;;;;;18.40;11.73;;;7.60;99.90;;;;;;5047871;28;20192;-80
2021/03/26 03:22:12;;;;;;;18.27;11.00;;;7.60;99.90;;;;;;5048090;28;20663;-81
2021/03/26 03:24:41;;;;;;;20.43;12.70;;;7.60;99.90;;;;;;5049044;28;20299;-79
2021/03/26 03:27:30;;;;;;;21.53;12.37;;;7.60;99.90;;;;;;5047665;28;20715;-79
2021/03/26 03:30:30;;;;;;;22.57;12.90;;;7.60;99.90;;;;;;5047809;28;20277;-79
2021/03/26 03:33:10;;;;;;;18.37;11.67;;;7.60;99.90;;;;;;5049135;28;21101;-79
2021/03/26 03:36:00;;;;;;;16.17;11.07;;;7.60;99.90;;;;;;5047149;28;20745;-80
2021/03/26 03:38:50;;;;;;;18.87;11.37;;;7.60;99.90;;;;;;5047553;28;20171;-80
2021/03/26 03:41:32;;;;;;;21.23;11.70;;;7.60;99.90;;;;;;5048617;28;20185;-80
2021/03/26 03:44:19;;;;;;;17.10;11.47;;;7.50;99.90;;;;;;5047909;28;20660;-80
2021/03/26 03:46:51;;;;;;;21.03;13.43;;;7.50;99.90;;;;;;5047132;28;20222;-80
2021/03/26 03:49:46;;;;;;;20.27;12.80;;;7.40;99.90;;;;;;5047857;28;20232;-79
2021/03/26 03:52:35;;;;;;;23.47;12.90;;;7.40;99.90;;;;;;5050805;28;20194;-80
2021/03/26 03:55:09;;;;;;;18.40;12.37;;;7.30;99.90;;;;;;5045364;28;20191;-80
2021/03/26 03:57:44;;;;;;;22.17;13.50;;;7.20;99.90;;;;;;5047237;28;20216;-79
2021/03/26 04:00:17;;;;;;;22.73;13.13;;;7.10;99.90;;;;;;5047501;28;20766;-80
2021/03/26 04:02:42;;;;;;;19.13;11.30;;;7.00;99.90;;;;;;5047805;28;20174;-79
2021/03/26 04:05:15;;;;;;;18.67;10.87;;;6.80;99.90;;;;;;5048306;28;20179;-80
2021/03/26 04:07:59;;;;;;;20.03;12.93;;;6.70;99.90;;;;;;5046771;28;20260;-79
2021/03/26 04:10:26;;;;;;;18.57;11.83;;;6.60;99.90;;;;;;5042675;28;20181;-79
2021/03/26 04:12:57;;;;;;;18.67;11.77;;;6.60;99.90;;;;;;5047487;28;20182;-80
2021/03/26 04:15:30;;;;;;;20.63;12.50;;;6.50;99.90;;;;;;5048272;28;20182;-80
2021/03/26 04:18:44;;;;;;;22.80;13.30;;;6.50;99.90;;;;;;5048363;28;20190;-79
2021/03/26 04:21:21;;;;;;;19.30;12.00;;;6.50;99.90;;;;;;5028907;28;20193;-79
2021/03/26 04:24:00;;;;;;;21.83;11.93;;;6.50;99.90;;;;;;5038593;28;20185;-79
2021/03/26 04:26:30;;;;;;;19.17;12.13;;;6.60;99.90;;;;;;5045989;28;20340;-79
2021/03/26 04:29:02;;;;;;;20.63;13.07;;;6.60;99.90;;;;;;5046891;28;20216;-80
2021/03/26 04:31:33;;;;;;;18.47;11.07;;;6.60;99.90;;;;;;5046458;28;20825;-79
2021/03/26 04:33:59;;;;;;;17.93;11.70;;;6.70;99.90;;;;;;5047558;28;20206;-79
2021/03/26 04:36:32;;;;;;;20.17;13.07;;;6.70;99.90;;;;;;5046210;28;20268;-79
2021/03/26 04:39:09;;;;;;;19.60;11.70;;;6.70;99.90;;;;;;5046235;28;20644;-81
2021/03/26 04:41:54;;;;;;;20.13;12.40;;;6.70;99.90;;;;;;5046497;28;20737;-80
2021/03/26 04:44:33;;;;;;;18.07;10.47;;;6.70;99.90;;;;;;5045877;28;20182;-79
2021/03/26 04:47:30;;;;;;;19.93;11.87;;;6.70;99.90;;;;;;5046236;28;20721;-78
2021/03/26 04:49:59;;;;;;;17.13;10.60;;;6.60;99.90;;;;;;5046845;28;20688;-79
2021/03/26 04:52:49;;;;;;;20.40;11.60;;;6.60;99.90;;;;;;5046749;28;20174;-80
2021/03/26 04:55:21;;;;;;;16.17;12.17;;;6.60;99.90;;;;;;5045509;28;20191;-79
2021/03/26 04:58:22;;;;;;;20.17;11.93;;;6.50;99.90;;;;;;5045908;28;20634;-80
2021/03/26 05:00:50;;;;;;;18.47;11.40;;;6.60;99.90;;;;;;5045764;28;20194;-80
2021/03/26 05:03:23;;;;;;;22.10;12.03;;;6.50;99.90;;;;;;5046416;28;20247;-81
2021/03/26 05:05:57;;;;;;;20.47;12.70;;;6.50;99.90;;;;;;5047087;28;20209;-80
2021/03/26 05:08:24;;;;;;;16.57;11.27;;;6.50;99.90;;;;;;5046057;28;20269;-79
2021/03/26 05:10:52;;;;;;;20.33;12.20;;;6.50;99.90;;;;;;5045486;28;20249;-80
2021/03/26 05:13:29;;;;;;;22.87;12.40;;;6.50;99.90;;;;;;5045756;28;20755;-79
2021/03/26 05:16:06;;;;;;;19.77;11.90;;;6.50;99.90;;;;;;5046916;28;20271;-80
2021/03/26 05:18:57;;;;;;;18.73;12.27;;;6.50;99.90;;;;;;5046470;28;20731;-79
2021/03/26 05:21:34;;;;;;;20.43;11.90;;;6.50;99.90;;;;;;5046804;28;20189;-80
2021/03/26 05:24:11;;;;;;;20.13;13.27;;;6.60;99.90;;;;;;5046498;28;20658;-79
2021/03/26 05:26:38;;;;;;;15.77;11.17;;;6.60;99.90;;;;;;5045783;28;20209;-80
2021/03/26 05:29:04;;;;;;;18.63;10.87;;;6.70;99.90;;;;;;5044493;28;20186;-76
2021/03/26 05:31:43;;;;;;;21.10;12.40;;;6.70;99.90;;;;;;5045212;28;20178;-76
2021/03/26 05:34:31;;;;;;;23.20;14.17;;;6.80;99.90;;;;;;5043329;28;20295;-76
2021/03/26 05:37:08;;;;;;;17.67;11.20;;;6.80;99.90;;;;;;5045675;28;20638;-80
2021/03/26 05:39:36;;;;;;;18.87;11.93;;;6.90;99.90;;;;;;5044696;28;20681;-80
2021/03/26 05:42:30;;;;;;;17.20;11.00;;;6.90;99.90;;;;;;5043551;28;20652;-80
2021/03/26 05:45:15;;;;;;;18.07;12.93;;;7.00;99.90;;;;;;5046147;28;20659;-80
2021/03/26 05:48:01;;;;;;;21.70;13.13;;;7.10;99.90;;;;;;5046732;28;20263;-80
2021/03/26 05:50:41;;;;;;;22.80;13.47;;;7.10;99.90;;;;;;5045322;28;20174;-80
2021/03/26 05:53:40;;;;;;;22.77;14.30;;;7.10;99.90;;;;;;5045061;28;20205;-80
2021/03/26 05:56:30;;;;;;;20.00;12.70;;;7.20;99.90;;;;;;5045908;28;20624;-80
2021/03/26 05:59:29;;;;;;;20.50;12.50;;;7.30;99.90;;;;;;5046665;28;20186;-80
2021/03/26 06:02:36;;;;;;;20.27;13.30;;;7.30;99.90;;;;;;5061939;28;20178;-80
2021/03/26 06:05:47;;;;;;;18.83;12.33;;;7.30;99.90;;;;;;5046009;28;20181;-80
2021/03/26 06:08:50;;;;;;;20.23;10.87;;;7.40;99.90;;;;;;5043668;28;20222;-80
2021/03/26 06:11:45;;;;;;;28.43;17.73;;;7.50;99.90;;;;;;5045121;28;20686;-80
2021/03/26 06:14:34;;;;;;;23.03;14.60;;;7.50;99.90;;;;;;5024160;28;20202;-80
2021/03/26 06:17:27;;;;;;;21.83;13.43;;;7.60;99.90;;;;;;5046184;28;20198;-81
2021/03/26 06:19:59;;;;;;;23.93;12.77;;;7.70;99.90;;;;;;5046102;28;20232;-80
2021/03/26 06:22:52;;;;;;;20.67;13.53;;;7.80;99.90;;;;;;5044875;28;20601;-80
2021/03/26 06:26:15;;;;;;;19.47;12.33;;;7.80;99.90;;;;;;5043252;28;20175;-80
2021/03/26 06:28:45;;;;;;;18.80;12.37;;;7.90;99.90;;;;;;5049284;28;20194;-80
2021/03/26 06:31:35;;;;;;;26.60;14.50;;;8.00;99.90;;;;;;5046244;28;20666;-79
2021/03/26 06:34:22;;;;;;;24.60;13.27;;;8.10;99.90;;;;;;5044082;28;20324;-80
2021/03/26 06:36:57;;;;;;;21.07;12.63;;;8.10;99.90;;;;;;5043940;28;20572;-81
2021/03/26 06:39:53;;;;;;;21.23;13.27;;;8.20;99.90;;;;;;5044245;28;20220;-81
2021/03/26 06:42:44;;;;;;;25.43;15.10;;;8.30;99.90;;;;;;5043725;28;20239;-80
2021/03/26 06:45:42;;;;;;;23.80;13.50;;;8.30;99.90;;;;;;5042980;28;20656;-79
2021/03/26 06:48:14;;;;;;;24.47;14.20;;;8.40;99.90;;;;;;5044000;28;20224;-80
2021/03/26 06:51:14;;;;;;;26.50;14.90;;;8.60;99.90;;;;;;5046441;28;20243;-80
2021/03/26 06:54:21;;;;;;;25.37;15.50;;;8.70;99.90;;;;;;5037646;28;20209;-80
2021/03/26 06:57:10;;;;;;;24.60;14.93;;;8.90;99.90;;;;;;5042145;28;20205;-80
2021/03/26 06:59:57;;;;;;;21.47;12.57;;;9.00;99.90;;;;;;5044147;28;20186;-80
2021/03/26 07:02:29;;;;;;;26.40;16.50;;;9.20;99.90;;;;;;5044241;28;20178;-80
2021/03/26 07:04:54;;;;;;;21.83;14.20;;;9.30;99.90;;;;;;5045474;28;20592;-80
2021/03/26 07:07:32;;;;;;;23.00;13.60;;;9.50;99.90;;;;;;5045088;28;20308;-80
2021/03/26 07:10:12;;;;;;;21.77;13.40;;;9.60;99.90;;;;;;5044266;28;20209;-80
2021/03/26 07:12:59;;;;;;;25.63;14.17;;;9.70;99.90;;;;;;5043418;28;20265;-81
2021/03/26 07:15:48;;;;;;;26.10;15.10;;;9.70;99.90;;;;;;5043639;28;20182;-81
2021/03/26 07:18:45;;;;;;;23.03;14.30;;;9.90;99.90;;;;;;5043038;28;20225;-79
2021/03/26 07:21:11;;;;;;;24.87;14.83;;;10.10;99.90;;;;;;5040841;28;20189;-80
2021/03/26 07:23:51;;;;;;;27.47;15.93;;;10.30;99.90;;;;;;5040174;28;20182;-80
2021/03/26 07:26:54;;;;;;;23.10;14.37;;;10.40;99.90;;;;;;5039652;28;20202;-80
2021/03/26 07:29:54;;;;;;;24.60;14.20;;;10.60;99.90;;;;;;5040055;28;20185;-81
2021/03/26 07:32:38;;;;;;;25.20;13.33;;;10.80;99.90;;;;;;5041978;28;20175;-80
2021/03/26 07:35:04;;;;;;;19.10;12.07;;;10.70;99.90;;;;;;5040178;28;20359;-81
2021/03/26 07:37:50;;;;;;;21.97;13.67;;;10.70;99.90;;;;;;5043815;28;20296;-81
2021/03/26 07:40:28;;;;;;;20.60;12.87;;;10.90;99.90;;;;;;5041777;28;20426;-81
2021/03/26 07:43:11;;;;;;;19.17;11.77;;;10.90;99.90;;;;;;5040893;28;20194;-81
2021/03/26 07:46:15;;;;;;;21.47;12.47;;;11.10;99.90;;;;;;5039991;28;20202;-80
2021/03/26 07:48:59;;;;;;;24.23;13.13;;;11.10;99.90;;;;;;5039893;28;20196;-81
2021/03/26 07:51:33;;;;;;;20.67;11.40;;;11.20;99.90;;;;;;5041395;28;20186;-81
2021/03/26 07:54:34;;;;;;;22.13;11.60;;;11.50;99.90;;;;;;5040754;28;20186;-81
2021/03/26 07:57:41;;;;;;;20.93;12.27;;;11.60;99.90;;;;;;5043212;28;20209;-81
2021/03/26 08:00:26;;;;;;;19.40;11.40;;;11.50;99.90;;;;;;5043188;28;20678;-80
2021/03/26 08:02:58;;;;;;;19.03;12.07;;;11.70;99.90;;;;;;5044473;28;20481;-80
2021/03/26 08:05:42;;;;;;;17.70;11.90;;;11.90;99.90;;;;;;5043408;28;20182;-80
2021/03/26 08:08:46;;;;;;;18.08;11.65;;;11.90;99.90;;;;;;5043714;28;20288;-81
2021/03/26 08:11:32;;;;;;;19.93;10.97;;;11.90;99.90;;;;;;5043918;28;20181;-80
2021/03/26 08:14:36;;;;;;;20.70;10.63;;;12.00;99.90;;;;;;5043310;28;20182;-81
2021/03/26 08:17:10;;;;;;;19.93;11.17;;;12.10;99.90;;;;;;5042694;28;20622;-80
2021/03/26 08:20:00;;;;;;;19.40;10.33;;;12.00;99.90;;;;;;5043960;28;20188;-81
2021/03/26 08:23:10;;;;;;;22.02;11.18;;;11.90;99.90;;;;;;5042508;28;20328;-81
2021/03/26 08:25:41;;;;;;;17.48;10.30;;;11.70;99.90;;;;;;5032404;28;20691;-81
2021/03/26 08:28:35;;;;;;;16.73;11.30;;;11.50;99.90;;;;;;5045189;28;20206;-80
2021/03/26 08:31:16;;;;;;;19.80;11.73;;;11.60;99.90;;;;;;5043632;28;20186;-80
2021/03/26 08:33:56;;;;;;;22.57;12.80;;;11.70;99.90;;;;;;5043850;28;20192;-81
2021/03/26 08:36:42;;;;;;;19.63;12.10;;;11.90;99.90;;;;;;5047815;28;20202;-78
2021/03/26 08:39:41;;;;;;;21.63;11.63;;;12.10;99.90;;;;;;5046648;28;20182;-81
2021/03/26 08:42:29;;;;;;;17.40;10.60;;;12.30;99.90;;;;;;5044701;28;20182;-81
2021/03/26 08:44:59;;;;;;;16.30;10.68;;;12.50;99.90;;;;;;5041960;28;20182;-81
2021/03/26 08:47:42;;;;;;;22.07;11.80;;;12.60;99.90;;;;;;5041852;28;20220;-81
2021/03/26 08:50:26;;;;;;;23.35;13.70;;;12.70;99.90;;;;;;5042388;28;20200;-81
2021/03/26 08:53:07;;;;;;;18.40;12.00;;;13.00;99.90;;;;;;5043446;28;20197;-81
2021/03/26 08:55:44;;;;;;;16.83;11.70;;;13.20;99.90;;;;;;5042464;28;20236;-81
2021/03/26 08:58:49;;;;;;;17.65;11.52;;;13.40;99.90;;;;;;5043023;28;20192;-80
2021/03/26 09:01:33;;;;;;;23.10;11.93;;;13.40;99.90;;;;;;5043036;28;20237;-81
2021/03/26 09:04:46;;;;;;;18.75;12.30;;;13.30;99.90;;;;;;5042990;28;20196;-81
2021/03/26 09:07:21;;;;;;;17.88;10.82;;;13.50;99.90;;;;;;5024590;28;20217;-81
2021/03/26 09:09:52;;;;;;;14.95;8.98;;;13.80;99.90;;;;;;5040946;28;20185;-80
2021/03/26 09:12:47;;;;;;;16.38;10.30;;;13.70;99.90;;;;;;5031842;28;20193;-81
2021/03/26 09:15:46;;;;;;;15.90;10.02;;;13.80;99.90;;;;;;5042554;28;20800;-81
2021/03/26 09:18:26;;;;;;;15.98;9.82;;;13.80;99.90;;;;;;5041085;28;20664;-80
2021/03/26 09:21:08;;;;;;;15.23;9.15;;;13.90;99.90;;;;;;5041309;28;20223;-81
2021/03/26 09:24:03;;;;;;;11.18;7.40;;;14.00;99.90;;;;;;5042061;28;20690;-81
2021/03/26 09:26:42;;;;;;;12.65;7.80;;;14.20;99.90;;;;;;5042535;28;20214;-80
2021/03/26 09:29:17;;;;;;;12.32;8.27;;;14.40;99.90;;;;;;5041997;28;20174;-80
2021/03/26 09:31:55;;;;;;;12.18;8.52;;;14.80;99.90;;;;;;5041144;28;20256;-81
2021/03/26 09:34:32;;;;;;;12.93;7.85;;;14.90;99.90;;;;;;5040765;28;20174;-81
2021/03/26 09:37:27;;;;;;;12.18;7.20;;;14.70;99.90;;;;;;5041217;28;20209;-81
2021/03/26 09:39:58;;;;;;;11.93;7.78;;;14.80;99.90;;;;;;5042222;28;20264;-81
2021/03/26 09:42:33;;;;;;;11.90;8.15;;;14.90;99.90;;;;;;5041469;28;20652;-81
2021/03/26 09:45:09;;;;;;;13.18;8.90;;;14.90;99.90;;;;;;5040816;28;20181;-80
2021/03/26 09:47:50;;;;;;;14.77;8.13;;;15.00;99.90;;;;;;5042522;28;20210;-81
2021/03/26 09:50:48;;;;;;;15.45;8.90;;;15.00;99.90;;;;;;5040840;28;20699;-81
2021/03/26 09:53:16;;;;;;;14.93;9.20;;;14.90;99.90;;;;;;5040794;28;20227;-81
2021/03/26 09:55:44;;;;;;;12.10;7.35;;;15.10;99.90;;;;;;5040700;28;20206;-81
2021/03/26 09:58:55;;;;;;;14.68;8.07;;;15.50;99.90;;;;;;5042587;28;20182;-80
2021/03/26 10:01:35;;;;;;;14.30;7.93;;;15.40;99.90;;;;;;5025542;28;20190;-81
2021/03/26 10:04:08;;;;;;;12.10;7.57;;;16.00;99.90;;;;;;5038848;28;20189;-80
2021/03/26 10:07:18;;;;;;;12.93;7.97;;;16.00;99.90;;;;;;5040447;28;20206;-80
2021/03/26 10:09:49;;;;;;;10.45;6.70;;;16.00;99.90;;;;;;5040319;28;20674;-80
2021/03/26 10:12:24;;;;;;;13.07;8.13;;;16.10;99.90;;;;;;5040589;28;20201;-80
2021/03/26 10:14:53;;;;;;;13.85;7.97;;;16.40;99.90;;;;;;5039843;28;20236;-80
2021/03/26 10:17:32;;;;;;;12.43;7.53;;;16.50;99.90;;;;;;5039950;28;20201;-81
2021/03/26 10:20:17;;;;;;;11.93;6.85;;;16.90;99.90;;;;;;5040102;28;20236;-81
2021/03/26 10:23:00;;;;;;;13.15;8.45;;;17.00;99.90;;;;;;5026367;28;20706;-80
2021/03/26 10:25:42;;;;;;;14.35;8.75;;;16.70;99.90;;;;;;5041465;28;20640;-81
2021/03/26 10:28:23;;;;;;;12.00;7.43;;;16.50;99.90;;;;;;5040608;28;20208;-81
2021/03/26 10:31:00;;;;;;;14.80;8.27;;;16.50;99.90;;;;;;5041692;28;20181;-81
2021/03/26 10:33:27;;;;;;;12.27;7.75;;;16.50;99.90;;;;;;5040891;28;20478;-80
2021/03/26 10:36:12;;;;;;;12.85;7.80;;;15.90;99.90;;;;;;5040056;28;20589;-80
2021/03/26 10:38:52;;;;;;;12.85;7.70;;;16.30;99.90;;;;;;5039999;28;20245;-81
2021/03/26 10:41:47;;;;;;;10.95;7.00;;;16.60;99.90;;;;;;5040276;28;20181;-80
2021/03/26 10:44:41;;;;;;;10.38;7.38;;;16.20;99.90;;;;;;5021488;28;20668;-81
2021/03/26 10:47:23;;;;;;;11.60;7.32;;;16.20;99.90;;;;;;5039812;28;20221;-80
2021/03/26 10:49:53;;;;;;;10.55;6.25;;;16.20;99.90;;;;;;5040958;28;20213;-81
2021/03/26 10:52:23;;;;;;;11.27;7.70;;;16.30;99.90;;;;;;5039261;28;20676;-80
2021/03/26 10:55:28;;;;;;;9.45;6.32;;;16.20;99.90;;;;;;5041083;28;20200;-80
2021/03/26 10:58:05;;;;;;;8.20;5.45;;;16.10;99.90;;;;;;5032385;28;20354;-81
2021/03/26 11:00:44;;;;;;;7.88;4.72;;;16.30;99.90;;;;;;5039754;28;20557;-81
2021/03/26 11:03:16;;;;;;;7.53;5.53;;;16.20;99.90;;;;;;5041574;28;20182;-80
2021/03/26 11:06:14;;;;;;;8.48;5.63;;;16.00;99.90;;;;;;5041232;28;20259;-81
2021/03/26 11:08:41;;;;;;;8.30;4.93;;;16.10;99.90;;;;;;5039063;28;20210;-81
2021/03/26 11:11:10;;;;;;;7.15;4.35;;;16.20;99.90;;;;;;5041235;28;20432;-80
2021/03/26 11:13:54;;;;;;;5.78;3.95;;;16.30;99.90;;;;;;5039424;28;20185;-81
2021/03/26 11:16:39;;;;;;;6.97;4.10;;;16.50;99.90;;;;;;5041264;28;20691;-81
2021/03/26 11:19:31;;;;;;;6.03;4.57;;;17.10;99.90;;;;;;5041351;28;20255;-80
2021/03/26 11:22:06;;;;;;;7.40;3.95;;;17.10;99.90;;;;;;5040209;28;20182;-81
2021/03/26 11:24:57;;;;;;;6.40;4.20;;;17.10;99.90;;;;;;5039318;28;20273;-81
2021/03/26 11:27:29;;;;;;;5.50;4.07;;;17.00;99.90;;;;;;5039772;28;20287;-81
2021/03/26 11:30:18;;;;;;;6.28;4.70;;;16.80;99.90;;;;;;5043941;28;20193;-81
2021/03/26 11:32:48;;;;;;;5.35;3.60;;;16.80;99.90;;;;;;5043599;28;20182;-80
2021/03/26 11:35:18;;;;;;;9.38;4.47;;;17.00;99.90;;;;;;5043749;28;20183;-80
2021/03/26 11:38:13;;;;;;;6.25;3.67;;;17.20;99.90;;;;;;5039017;28;20667;-81
2021/03/26 11:40:46;;;;;;;5.10;3.55;;;17.20;99.90;;;;;;5044562;28;20220;-80
2021/03/26 11:43:30;;;;;;;4.85;3.53;;;17.00;97.80;;;;;;5043743;28;20216;-81
2021/03/26 11:45:55;;;;;;;6.82;4.57;;;16.80;98.70;;;;;;5043090;28;20308;-81
2021/03/26 11:48:36;;;;;;;6.10;4.18;;;17.10;99.90;;;;;;5044909;28;20294;-81
2021/03/26 11:51:28;;;;;;;9.98;4.88;;;17.40;99.30;;;;;;5043210;28;20190;-81
2021/03/26 11:54:07;;;;;;;5.30;3.63;;;17.40;97.80;;;;;;5044846;28;20225;-81
2021/03/26 11:56:39;;;;;;;6.85;4.78;;;17.70;99.00;;;;;;5029859;28;20208;-81
2021/03/26 11:59:39;;;;;;;6.63;3.72;;;17.90;98.00;;;;;;5044444;28;20433;-81
2021/03/26 12:02:25;;;;;;;6.20;4.10;;;18.20;97.60;;;;;;5045624;28;20671;-81
2021/03/26 12:05:04;;;;;;;7.05;4.22;;;18.40;96.20;;;;;;5042359;28;20247;-81
2021/03/26 12:07:56;;;;;;;6.57;4.50;;;18.20;97.10;;;;;;5044125;28;20202;-81
2021/03/26 12:10:21;;;;;;;6.63;4.30;;;18.30;95.40;;;;;;5031730;28;20202;-81
2021/03/26 12:13:10;;;;;;;6.70;4.95;;;18.10;96.30;;;;;;5042870;28;20734;-81
2021/03/26 12:15:47;;;;;;;6.75;4.60;;;18.20;96.20;;;;;;5042249;28;20202;-81
2021/03/26 12:18:49;;;;;;;6.03;4.20;;;18.20;95.20;;;;;;5042822;28;20583;-81
2021/03/26 12:21:41;;;;;;;6.10;4.20;;;18.30;95.40;;;;;;5043174;28;20213;-81
2021/03/26 12:24:25;;;;;;;5.03;3.85;;;18.20;93.80;;;;;;5042884;28;20247;-80
2021/03/26 12:27:00;;;;;;;5.38;3.78;;;17.80;94.20;;;;;;5042687;28;20214;-81
2021/03/26 12:30:00;;;;;;;5.22;3.78;;;17.40;94.60;;;;;;5042055;28;20269;-81
2021/03/26 12:32:48;;;;;;;5.95;4.25;;;17.40;95.20;;;;;;5035744;28;20293;-81
2021/03/26 12:35:22;;;;;;;6.75;3.55;;;17.40;95.60;;;;;;5041721;28;20189;-81
2021/03/26 12:37:56;;;;;;;4.75;3.30;;;17.30;95.20;;;;;;5042773;28;20197;-81
2021/03/26 12:40:46;;;;;;;5.20;2.88;;;16.90;94.00;;;;;;5043199;28;20181;-81
2021/03/26 12:43:22;;;;;;;5.10;2.60;;;16.80;94.90;;;;;;5042656;28;20239;-81
2021/03/26 12:46:10;;;;;;;4.35;3.13;;;16.80;94.50;;;;;;5041445;28;20209;-80
2021/03/26 12:48:54;;;;;;;4.57;3.35;;;16.70;95.50;;;;;;5042394;28;20288;-81
2021/03/26 12:51:30;;;;;;;4.03;2.90;;;16.70;95.30;;;;;;5043295;28;20348;-81
2021/03/26 12:54:11;;;;;;;4.90;2.83;;;17.00;95.50;;;;;;5042322;28;20178;-81
2021/03/26 12:56:52;;;;;;;4.45;2.72;;;17.20;95.30;;;;;;5041865;28;20205;-81
2021/03/26 12:59:26;;;;;;;4.95;3.42;;;17.50;94.30;;;;;;5043125;28;20386;-81
2021/03/26 13:02:05;;;;;;;4.10;2.80;;;17.70;94.60;;;;;;5043750;28;20221;-80
2021/03/26 13:04:37;;;;;;;5.35;3.80;;;17.70;93.90;;;;;;5041501;28;20182;-81
2021/03/26 13:07:17;;;;;;;4.90;3.08;;;17.80;94.00;;;;;;5042263;28;20307;-80
2021/03/26 13:10:28;;;;;;;3.40;2.60;;;17.50;92.50;;;;;;5043107;28;20261;-81
2021/03/26 13:13:24;;;;;;;2.63;2.25;;;17.40;93.00;;;;;;5042623;28;20265;-81
2021/03/26 13:16:20;;;;;;;3.30;2.58;;;17.30;93.50;;;;;;5032142;28;20260;-80
2021/03/26 13:18:58;;;;;;;2.90;2.60;;;17.20;93.40;;;;;;5033104;28;20194;-81
2021/03/26 13:21:38;;;;;;;3.10;2.55;;;16.90;92.50;;;;;;5041391;28;20652;-81
2021/03/26 13:24:39;;;;;;;4.30;2.67;;;16.90;92.30;;;;;;5041969;28;20186;-80
2021/03/26 13:27:24;;;;;;;3.03;2.20;;;17.10;92.80;;;;;;5043404;28;20225;-80
2021/03/26 13:30:02;;;;;;;3.97;2.95;;;17.10;92.70;;;;;;5041825;28;20190;-81
2021/03/26 13:32:49;;;;;;;4.20;2.78;;;17.20;93.40;;;;;;5041482;28;20174;-80
2021/03/26 13:35:35;;;;;;;3.85;2.92;;;17.10;93.70;;;;;;5041067;28;20220;-81
2021/03/26 13:38:31;;;;;;;3.22;2.33;;;17.30;94.90;;;;;;5041832;28;20546;-80
2021/03/26 13:41:00;;;;;;;2.28;1.95;;;17.30;93.70;;;;;;5041172;28;20190;-80
2021/03/26 13:43:41;;;;;;;2.97;2.50;;;17.40;92.80;;;;;;5041551;28;20190;-79